Logo AVAMET
Benvolgut visitant, si us plau, ingressa Recuperar contrasenya

Inforatge Bellreguard

Dades diàries. Acumulats / Últims 30 dies disponibles

Data Temperatura (°C) Humitat rel. (%) Pressió rel. (hPa) Vent (km/h) Precipitació
Mínima Mitjana Màxima Amplitud
tèrmica
Mínima Mitjana Màxima Mínima Mitjana Màxima Predom. Mitjana Ràfega
màxima
Total
(mm)
Índex-n
Mínima Mitjana Màxima Mínima Mitjana Màxima n
0 a 1
P0 max
mm 5'
Dades mensuals acumulades fins l'últim dia disponible
09/2019 14,6 20,4 23,2 23,9 23,6 27,3 35,6 21,0 33 78 95 1.007 1.017 1.026   6,8 66,7 72,0
Dades anuals acumulades fins l'últim dia disponible
2019 1,4 15,0 27,1 19,4 11,4 24,1 40,0 38,6 15 66 98 993 1.017 1.036   6,7 72,2 367,6
Últims 30 dies disponibles
22-09-2019 21,6     25,9     29,4 7,8 55 72 91 1.011 1.012 1.015 S 5,5 22,6 0,0
21-09-2019 21,9     23,9     26,3 4,4 76 86 94 1.011 1.013 1.015 SSE 3,4 19,3 2,4 0,58 1,20
20-09-2019 20,6     23,1     25,8 5,2 77 86 92 1.015 1.017 1.018 SSE 6,1 25,9 0,0
19-09-2019 19,1     23,1     26,8 7,7 69 80 91 1.016 1.017 1.018 SSE 4,7 19,3 0,0
18-09-2019 20,6     24,2     28,8 8,2 47 76 92 1.014 1.014 1.016 S 4,5 19,3 0,0
17-09-2019 19,9     24,5     26,9 7,0 73 82 92 1.014 1.016 1.018 SSE 5,0 22,6 0,0
16-09-2019 23,2     24,3     26,6 3,4 75 88 95 1.017 1.018 1.020 ENE 6,4 22,6 0,0
15-09-2019 23,0     23,7     25,1 2,1 87 91 95 1.018 1.019 1.022 ENE 9,1 32,2 0,0
14-09-2019 18,2     22,0     24,3 6,1 76 86 94 1.020 1.023 1.025 SSE 6,1 42,6 6,8 2,00
13-09-2019 18,7     22,0     24,5 5,8 77 87 94 1.020 1.023 1.026 ESE 9,9 38,9 12,8 0,64 1,70
12-09-2019 19,5     22,3     23,8 4,3 73 83 93 1.019 1.023 1.026 ENE 14,2 66,7 29,8 0,59 3,20
11-09-2019 14,6     19,5     23,6 9,0 45 72 89 1.013 1.017 1.022 SSO 9,8 53,7 11,0 0,42 0,90
10-09-2019 18,9     24,1     27,4 8,5 33 48 81 1.007 1.010 1.013 SSO 9,5 38,9 1,8 0,27 0,60
09-09-2019 19,7     25,7     32,5 12,8 41 61 80 1.010 1.014 1.017 SSO 7,4 29,6 0,0
08-09-2019 18,5     22,6     27,2 8,7 55 75 87 1.015 1.017 1.019 S 6,9 29,6 0,0
07-09-2019 19,1     22,1     25,5 6,4 71 82 91 1.017 1.019 1.020 S 4,9 27,8 0,0
06-09-2019 21,6     23,4     25,6 4,0 63 76 88 1.018 1.019 1.020 ESE 5,8 27,8 0,0
05-09-2019 22,3     24,7     27,2 4,9 57 75 89 1.015 1.017 1.018 SSE 6,9 25,9 0,0
04-09-2019 22,9     26,3     30,3 7,4 59 77 91 1.015 1.018 1.020 S 5,0 25,9 0,0
03-09-2019 21,0     25,2     29,5 8,5 65 79 92 1.018 1.020 1.021 SSE 6,4 29,6 0,0
02-09-2019 22,3     24,5     26,9 4,6 72 84 93 1.014 1.017 1.020 S 5,1 43,5 7,4 0,13 0,60
01-09-2019 21,8     27,8     35,6 13,8 33 61 83 1.010 1.013 1.014 S 6,9 33,9 0,0
31-08-2019 21,9     27,1     32,6 10,7 42 62 77 1.013 1.015 1.018 SSE 6,4 24,1 0,0
30-08-2019 21,8     26,8     32,2 10,4 43 64 76 1.017 1.019 1.020 S 6,7 27,8 0,0
29-08-2019 20,2     25,7     31,5 11,3 48 69 87 1.017 1.018 1.020 SSE 6,5 27,8 0,0
28-08-2019 18,9     23,9     28,6 9,7 55 73 87 1.016 1.017 1.018 S 6,2 19,3 0,0
27-08-2019 18,3     23,2     27,7 9,4 66 82 92 1.013 1.015 1.017 S 5,5 37,0 1,8
26-08-2019 20,7     25,2     27,9 7,2 71 79 90 1.013 1.016 1.018 ESE 5,5 27,8 0,4
25-08-2019 24,3     26,5     28,7 4,4 63 75 80 1.016 1.017 1.018 NE 5,5 29,6 0,0
24-08-2019 20,2     24,6     28,2 8,0 67 73 80 1.017 1.018 1.019 SSE 6,2 20,9 0,0
Últims 13 mesos disponibles
08/2019 18,3 22,6 27,1 27,0 27,7 31,7 40,0 21,7 50 71 82 1.010 1.015 1.019 SSE 6,2 48,2 27,0
07/2019 20,8 23,0 26,3 27,2 28,0 31,6 37,6 16,8 42 68 80 1.005 1.013 1.021 SSE 6,7 58,0 0,4
06/2019 13,2 18,0 22,6 23,1 20,7 27,6 34,1 20,9 37 66 82 1.009 1.015 1.022 SSE 6,0 46,7 0,0
05/2019 9,6 14,9 22,2 19,5 18,5 24,3 31,6 22,0 35 67 81 1.006 1.015 1.024 SSE 6,4 51,9 5,6
04/2019 8,8 12,2 17,0 16,0 14,6 20,1 29,7 20,9 38 68 94 1.000 1.013 1.025 SSE 7,8 51,9 204,8
03/2019 6,2 9,5 16,0 14,8 14,1 19,9 28,6 22,4 30 61 93 1.011 1.023 1.030 SSE 5,8 61,1 55,4
02/2019 4,5 7,7 11,7 12,4 13,3 17,5 22,7 18,2 33 64 84 995 1.025 1.034 S 6,7 72,2 0,0
01/2019 1,4 7,4 14,4 11,6 11,4 16,9 21,2 19,8 40 59 80 1.002 1.019 1.031 SSO 8,1 61,1 2,4
12/2018 4,8 9,5 14,3 13,6 14,8 19,2 25,9 21,1 53 69 90 1.010 1.025 1.031 SSO 6,3 51,9 19,6
11/2018 7,1 12,4 15,7 15,3 16,3 19,0 23,3 16,2 48 73 96 1.001 1.016 1.024 OSO 6,3 58,0 204,4
Tots els anys disponibles
Temperatura (°C)
Humitat relativa (%)
Velocitat del vent i ràfega màxima (km/h)
Direcció del vent (°)
Pressió (hPa)
Precipitació (mm)
Nota sobre les dades: s'avisa a l'usuari de la provisionalitat i no oficialitat d'aquestes dades
Logo AVAMET blanc
Web allotjada a Sollutia
Llicència de Creative CommonsLa web d'AVAMET i els seus continguts estan subjectes a una llicència de
Reconeixement - No Comercial - Compartir igual
Properes estacions: Altea - Club Nàutic d'Altea (Soci),    - - - - -      Últimes estacions: Agullent (Soci), Llíria - Bodegas del Campo (Soci), La Pobla Tornesa (Soci), Quartell (Soci), Alzira - Est (Soci/Inforatge), San Miguel de las Salinas (MeteOrihuela), Segorbe (Inforatge), Alcalà de Xivert - Alcossebre (Inforatge), Moixent - la Foia (Soci), - - -